Time;durP1;ratioP1;P1;durP2;ratioP2;P2;SDS_P1;SDS_P2;PMS_P1;PMS_P2;Temp;Humidity;BMP_temperature;BMP_pressure;BME280_temperature;BME280_humidity;BME280_pressure;Samples;Min_cycle;Max_cycle;Signal;HPM_P1;HPM_P2
2021/01/26 00:00:53;;;;;;;22.43;14.00;;;2.80;99.90;;;;;;5023101;28;20948;-78
2021/01/26 00:03:19;;;;;;;21.50;13.60;;;2.80;99.90;;;;;;5028233;28;20414;-78
2021/01/26 00:05:45;;;;;;;24.90;13.67;;;2.90;99.90;;;;;;5012363;28;20411;-78
2021/01/26 00:08:11;;;;;;;20.80;13.23;;;2.90;99.90;;;;;;5033097;28;20434;-77
2021/01/26 00:10:37;;;;;;;18.17;14.00;;;2.90;99.90;;;;;;5032054;28;20175;-77
2021/01/26 00:13:04;;;;;;;24.67;14.20;;;2.90;99.90;;;;;;5014632;28;20233;-78
2021/01/26 00:15:29;;;;;;;25.53;13.47;;;2.90;99.90;;;;;;5013664;28;20406;-77
2021/01/26 00:17:55;;;;;;;26.97;13.57;;;2.90;99.90;;;;;;5013614;28;20481;-77
2021/01/26 00:20:21;;;;;;;23.53;13.20;;;3.00;99.90;;;;;;5018050;28;20632;-77
2021/01/26 00:22:47;;;;;;;26.00;13.90;;;3.00;99.90;;;;;;5019440;28;20205;-78
2021/01/26 00:25:16;;;;;;;24.30;13.63;;;3.10;99.90;;;;;;5026007;28;20824;-77
2021/01/26 00:27:42;;;;;;;22.33;14.30;;;3.00;99.90;;;;;;5023988;28;20188;-77
2021/01/26 00:30:09;;;;;;;21.20;13.73;;;3.00;99.90;;;;;;5012596;28;20918;-77
2021/01/26 00:32:35;;;;;;;24.60;13.67;;;3.00;99.90;;;;;;5013432;28;20591;-78
2021/01/26 00:35:01;;;;;;;24.63;14.23;;;3.00;99.90;;;;;;5027966;28;20414;-78
2021/01/26 00:37:26;;;;;;;27.80;14.30;;;3.00;99.90;;;;;;5027767;28;20267;-77
2021/01/26 00:39:52;;;;;;;27.70;14.33;;;3.00;99.90;;;;;;5013281;28;20665;-78
2021/01/26 00:42:18;;;;;;;21.67;13.23;;;3.00;99.90;;;;;;5016141;28;20195;-78
2021/01/26 00:44:43;;;;;;;23.73;12.97;;;3.00;99.90;;;;;;5032069;28;20171;-78
2021/01/26 00:47:09;;;;;;;24.80;15.07;;;3.10;99.90;;;;;;5015610;28;20291;-78
2021/01/26 00:49:35;;;;;;;26.43;12.30;;;3.00;99.90;;;;;;5018001;28;20233;-78
2021/01/26 00:52:00;;;;;;;21.60;12.50;;;3.10;99.90;;;;;;5016739;28;20213;-77
2021/01/26 00:54:26;;;;;;;17.57;12.97;;;3.00;99.90;;;;;;5012445;28;20230;-77
2021/01/26 00:56:51;;;;;;;31.60;13.90;;;3.00;99.90;;;;;;5024394;28;20174;-77
2021/01/26 00:59:17;;;;;;;26.80;14.20;;;3.00;99.90;;;;;;5018416;28;20312;-77
2021/01/26 01:01:42;;;;;;;20.03;12.10;;;3.00;99.90;;;;;;5030342;28;20206;-77
2021/01/26 01:04:08;;;;;;;26.23;14.10;;;3.00;99.90;;;;;;5030824;28;20163;-78
2021/01/26 01:06:34;;;;;;;26.93;13.87;;;3.10;99.90;;;;;;5038639;28;20196;-77
2021/01/26 01:08:59;;;;;;;19.90;13.03;;;3.00;99.90;;;;;;5021056;28;20920;-77
2021/01/26 01:11:28;;;;;;;18.33;12.80;;;3.10;99.90;;;;;;5020412;28;20241;-78
2021/01/26 01:13:54;;;;;;;23.10;13.40;;;3.10;99.90;;;;;;5028997;28;20180;-77
2021/01/26 01:16:19;;;;;;;21.20;12.03;;;3.10;99.90;;;;;;5032216;28;20865;-77
2021/01/26 01:18:45;;;;;;;20.00;11.53;;;3.10;99.90;;;;;;5032077;28;20184;-77
2021/01/26 01:21:10;;;;;;;19.90;13.60;;;3.10;99.90;;;;;;5029939;28;20750;-77
2021/01/26 01:23:36;;;;;;;70.00;14.00;;;3.20;99.90;;;;;;5032287;28;20179;-77
2021/01/26 01:26:02;;;;;;;26.33;12.50;;;3.10;99.90;;;;;;5032219;28;21002;-77
2021/01/26 01:28:28;;;;;;;20.63;12.20;;;3.10;99.90;;;;;;5029716;28;20175;-77
2021/01/26 01:30:56;;;;;;;18.30;11.33;;;3.20;99.90;;;;;;5035488;28;20214;-78
2021/01/26 01:33:22;;;;;;;18.27;11.77;;;3.20;99.90;;;;;;5034719;28;20990;-77
2021/01/26 01:35:48;;;;;;;19.77;12.67;;;3.20;99.90;;;;;;5034343;28;20413;-78
2021/01/26 01:38:14;;;;;;;20.43;11.90;;;3.30;99.90;;;;;;5035226;28;20481;-77
2021/01/26 01:40:39;;;;;;;16.10;11.50;;;3.20;99.90;;;;;;5034313;28;20182;-78
2021/01/26 01:43:05;;;;;;;17.50;11.30;;;3.20;99.90;;;;;;5034044;28;20426;-77
2021/01/26 01:45:31;;;;;;;17.40;11.97;;;3.20;99.90;;;;;;5033683;28;20194;-77
2021/01/26 01:48:14;;;;;;;20.73;11.30;;;3.30;99.90;;;;;;5032970;28;20993;-77
2021/01/26 01:50:44;;;;;;;16.10;11.73;;;3.30;99.90;;;;;;5032536;28;20530;-77
2021/01/26 01:53:27;;;;;;;27.67;13.30;;;3.40;99.90;;;;;;5033219;28;20433;-78
2021/01/26 01:56:14;;;;;;;23.10;12.47;;;3.40;99.90;;;;;;5033501;28;20513;-77
2021/01/26 01:58:46;;;;;;;17.47;11.60;;;3.40;99.90;;;;;;5032766;28;20788;-78
2021/01/26 02:01:16;;;;;;;21.27;11.30;;;3.40;99.90;;;;;;5031009;28;20492;-77
2021/01/26 02:03:45;;;;;;;16.73;11.43;;;3.50;99.90;;;;;;5032798;28;20441;-77
2021/01/26 02:06:11;;;;;;;12.37;10.33;;;3.40;99.90;;;;;;5033877;28;20930;-77
2021/01/26 02:08:53;;;;;;;21.67;11.57;;;3.40;99.90;;;;;;5033715;28;20806;-78
2021/01/26 02:11:19;;;;;;;14.73;10.37;;;3.50;99.90;;;;;;5026582;28;20452;-78
2021/01/26 02:13:46;;;;;;;12.50;10.40;;;3.40;99.90;;;;;;5021586;28;20426;-78
2021/01/26 02:16:28;;;;;;;16.53;12.07;;;3.40;99.90;;;;;;5025745;28;20438;-78
2021/01/26 02:19:31;;;;;;;19.43;10.63;;;3.40;99.90;;;;;;5023820;28;20444;-77
2021/01/26 02:22:25;;;;;;;16.57;10.20;;;3.40;99.90;;;;;;5043381;28;20965;-77
2021/01/26 02:25:09;;;;;;;17.50;10.60;;;3.40;99.90;;;;;;5033566;28;20526;-77
2021/01/26 02:27:53;;;;;;;21.60;10.60;;;3.40;99.90;;;;;;5033389;28;20548;-77
2021/01/26 02:30:21;;;;;;;20.33;11.43;;;3.40;99.90;;;;;;5033164;28;20425;-78
2021/01/26 02:33:11;;;;;;;15.43;10.10;;;3.50;99.90;;;;;;5033511;28;20454;-77
2021/01/26 02:35:55;;;;;;;24.53;11.30;;;3.40;99.90;;;;;;5018497;28;20433;-76
2021/01/26 02:39:10;;;;;;;17.37;10.60;;;3.40;99.90;;;;;;5032686;28;20422;-78
2021/01/26 02:41:59;;;;;;;18.33;11.30;;;3.40;99.90;;;;;;5008189;28;20445;-77
2021/01/26 02:44:39;;;;;;;22.70;10.90;;;3.50;99.90;;;;;;5025533;28;20801;-78
2021/01/26 02:47:43;;;;;;;16.40;10.70;;;3.40;99.90;;;;;;5031790;28;20797;-77
2021/01/26 02:50:25;;;;;;;13.67;10.23;;;3.40;99.90;;;;;;5031760;28;20956;-77
2021/01/26 02:53:21;;;;;;;22.43;10.53;;;3.50;99.90;;;;;;5033341;28;20499;-77
2021/01/26 02:56:29;;;;;;;17.47;12.17;;;3.40;99.90;;;;;;5030889;28;20430;-76
2021/01/26 02:59:29;;;;;;;23.83;14.20;;;3.50;99.90;;;;;;5033238;28;20466;-77
2021/01/26 03:02:15;;;;;;;17.37;10.23;;;3.50;99.90;;;;;;5017653;28;20457;-77
2021/01/26 03:05:27;;;;;;;18.10;10.50;;;3.50;99.90;;;;;;5026324;28;20950;-78
2021/01/26 03:07:57;;;;;;;13.07;9.00;;;3.50;99.90;;;;;;5031063;28;20523;-78
2021/01/26 03:10:27;;;;;;;19.47;10.23;;;3.60;99.90;;;;;;5032379;28;20442;-77
2021/01/26 03:13:01;;;;;;;14.83;10.83;;;3.60;99.90;;;;;;5025453;28;20427;-77
2021/01/26 03:15:35;;;;;;;19.03;8.70;;;3.70;99.90;;;;;;5030804;28;20447;-77
2021/01/26 03:18:10;;;;;;;19.33;9.50;;;3.60;99.90;;;;;;5033082;28;20457;-78
2021/01/26 03:20:40;;;;;;;17.33;10.50;;;3.60;99.90;;;;;;5032159;28;20442;-77
2021/01/26 03:23:12;;;;;;;14.80;8.77;;;3.50;99.90;;;;;;5033885;28;20405;-78
2021/01/26 03:25:42;;;;;;;16.13;9.77;;;3.60;99.90;;;;;;5028175;28;20427;-77
2021/01/26 03:28:10;;;;;;;16.43;8.30;;;3.60;99.90;;;;;;5026259;28;20454;-77
2021/01/26 03:30:39;;;;;;;13.57;9.13;;;3.60;99.90;;;;;;5038897;28;20777;-77
2021/01/26 03:33:10;;;;;;;14.37;10.03;;;3.50;99.90;;;;;;5035203;28;20430;-77
2021/01/26 03:35:35;;;;;;;13.80;10.50;;;3.50;99.90;;;;;;5029510;28;20787;-77
2021/01/26 03:38:28;;;;;;;17.47;9.50;;;3.50;99.90;;;;;;5019858;28;20435;-78
2021/01/26 03:40:55;;;;;;;17.63;10.70;;;3.50;99.90;;;;;;5060163;28;20294;-78
2021/01/26 03:43:22;;;;;;;16.43;11.10;;;3.50;99.90;;;;;;5031011;28;20900;-77
2021/01/26 03:45:56;;;;;;;13.40;11.30;;;3.40;99.90;;;;;;5021143;28;20456;-77
2021/01/26 03:48:54;;;;;;;15.33;10.37;;;3.40;99.90;;;;;;5030955;28;20531;-77
2021/01/26 03:51:43;;;;;;;21.47;11.03;;;3.40;99.90;;;;;;5012039;28;20516;-77
2021/01/26 03:54:17;;;;;;;13.77;9.27;;;3.40;99.90;;;;;;5018583;28;20442;-77
2021/01/26 03:57:08;;;;;;;20.03;11.23;;;3.50;99.90;;;;;;5032280;28;20434;-77
2021/01/26 03:59:40;;;;;;;17.83;11.17;;;3.40;99.90;;;;;;5029099;28;20770;-79
2021/01/26 04:02:22;;;;;;;15.50;10.57;;;3.50;99.90;;;;;;5031677;28;20461;-78
2021/01/26 04:05:01;;;;;;;13.33;9.70;;;3.30;99.90;;;;;;5031234;28;20434;-77
2021/01/26 04:07:35;;;;;;;21.63;9.63;;;3.40;99.90;;;;;;5029946;28;20552;-77
2021/01/26 04:10:07;;;;;;;18.67;10.63;;;3.40;99.90;;;;;;5023607;28;20437;-78
2021/01/26 04:12:39;;;;;;;14.17;10.77;;;3.30;99.90;;;;;;5012067;28;20536;-78
2021/01/26 04:15:11;;;;;;;19.57;9.30;;;3.30;99.90;;;;;;5026791;28;20830;-78
2021/01/26 04:17:43;;;;;;;12.83;8.73;;;3.40;99.90;;;;;;5030803;28;20437;-77
2021/01/26 04:20:17;;;;;;;16.13;9.17;;;3.40;99.90;;;;;;5029722;28;20441;-77
2021/01/26 04:22:43;;;;;;;15.30;9.77;;;3.40;99.90;;;;;;5032074;28;20449;-77
2021/01/26 04:25:36;;;;;;;16.90;11.03;;;3.40;99.90;;;;;;5030269;28;20440;-77
2021/01/26 04:28:11;;;;;;;16.77;8.97;;;3.30;99.90;;;;;;5017196;28;20531;-77
2021/01/26 04:30:38;;;;;;;16.20;9.63;;;3.30;99.90;;;;;;5025929;28;20452;-77
2021/01/26 04:33:07;;;;;;;17.80;8.97;;;3.30;99.90;;;;;;5032062;28;20772;-77
2021/01/26 04:35:33;;;;;;;22.23;8.93;;;3.40;99.90;;;;;;5030939;28;20422;-78
2021/01/26 04:37:59;;;;;;;10.73;7.53;;;3.40;99.90;;;;;;5032236;28;20472;-78
2021/01/26 04:40:26;;;;;;;14.80;8.93;;;3.40;99.90;;;;;;5029368;28;20433;-77
2021/01/26 04:43:19;;;;;;;10.70;8.07;;;3.40;99.90;;;;;;5029879;28;20490;-78
2021/01/26 04:46:02;;;;;;;21.00;8.50;;;3.40;99.90;;;;;;5044209;28;20972;-77
2021/01/26 04:48:48;;;;;;;17.80;9.70;;;3.40;99.90;;;;;;5019102;28;20441;-78
2021/01/26 04:51:51;;;;;;;13.30;8.00;;;3.30;99.90;;;;;;5029756;28;20468;-78
2021/01/26 04:54:40;;;;;;;12.10;9.17;;;3.40;99.90;;;;;;5030963;28;20826;-78
2021/01/26 04:57:17;;;;;;;18.67;7.87;;;3.40;99.90;;;;;;5027634;28;20516;-77
2021/01/26 05:00:05;;;;;;;16.67;8.40;;;3.40;99.90;;;;;;5026899;28;20788;-78
2021/01/26 05:02:44;;;;;;;12.43;8.03;;;3.30;99.90;;;;;;5013083;28;20460;-78
2021/01/26 05:05:14;;;;;;;10.97;7.70;;;3.30;99.90;;;;;;5034819;28;20433;-78
2021/01/26 05:08:04;;;;;;;16.47;8.20;;;3.40;99.90;;;;;;5035658;28;20450;-78
2021/01/26 05:10:43;;;;;;;9.47;7.27;;;3.40;99.90;;;;;;5035154;28;20475;-76
2021/01/26 05:13:26;;;;;;;14.77;7.17;;;3.50;99.90;;;;;;5035114;28;20422;-78
2021/01/26 05:16:24;;;;;;;11.90;6.90;;;3.50;99.90;;;;;;5034189;28;20763;-78
2021/01/26 05:19:05;;;;;;;10.70;6.97;;;3.50;99.90;;;;;;5034559;28;20792;-77
2021/01/26 05:21:43;;;;;;;11.57;6.83;;;3.50;99.90;;;;;;5034538;28;20495;-77
2021/01/26 05:24:21;;;;;;;16.50;7.80;;;3.50;99.90;;;;;;5023317;28;20529;-77
2021/01/26 05:26:47;;;;;;;10.90;6.90;;;3.50;99.90;;;;;;5031027;28;20515;-77
2021/01/26 05:29:14;;;;;;;15.33;8.40;;;3.40;99.90;;;;;;5034513;28;20429;-76
2021/01/26 05:31:43;;;;;;;12.07;7.93;;;3.30;99.90;;;;;;5032067;28;20198;-78
2021/01/26 05:34:12;;;;;;;17.33;9.23;;;3.40;99.90;;;;;;5016140;28;20410;-77
2021/01/26 05:36:39;;;;;;;14.37;9.00;;;3.30;99.90;;;;;;5065354;28;20410;-77
2021/01/26 05:39:09;;;;;;;14.33;8.60;;;3.30;99.90;;;;;;5034611;28;20552;-77
2021/01/26 05:41:35;;;;;;;12.73;7.23;;;3.30;99.90;;;;;;5019991;28;20541;-78
2021/01/26 05:44:01;;;;;;;11.33;6.80;;;3.40;99.90;;;;;;5021564;28;20990;-77
2021/01/26 05:46:54;;;;;;;11.90;6.70;;;3.50;99.90;;;;;;5034225;28;20213;-77
2021/01/26 05:49:37;;;;;;;13.37;7.43;;;3.50;99.90;;;;;;5031835;28;20442;-77
2021/01/26 05:52:06;;;;;;;21.33;7.83;;;3.40;99.90;;;;;;5025968;28;20446;-77
2021/01/26 05:54:35;;;;;;;12.13;8.33;;;3.30;99.90;;;;;;5024889;28;20438;-78
2021/01/26 05:57:01;;;;;;;11.23;8.90;;;3.30;99.90;;;;;;5035186;28;20409;-77
2021/01/26 05:59:33;;;;;;;14.20;8.40;;;3.30;99.90;;;;;;5027380;28;20946;-78
2021/01/26 06:02:17;;;;;;;20.70;9.90;;;3.20;99.90;;;;;;5040449;28;20345;-78
2021/01/26 06:04:43;;;;;;;14.87;9.23;;;3.10;99.90;;;;;;5031451;28;20429;-77
2021/01/26 06:07:24;;;;;;;17.97;9.30;;;3.10;99.90;;;;;;5034975;28;20491;-79
2021/01/26 06:09:51;;;;;;;24.23;9.47;;;3.00;99.90;;;;;;5033853;28;20776;-77
2021/01/26 06:12:19;;;;;;;12.57;8.33;;;3.10;99.90;;;;;;5065294;28;20461;-78
2021/01/26 06:15:07;;;;;;;20.93;8.60;;;3.10;99.90;;;;;;5029115;28;20516;-77
2021/01/26 06:17:34;;;;;;;28.53;10.80;;;3.20;99.90;;;;;;5013734;28;20982;-77
2021/01/26 06:20:03;;;;;;;17.73;8.57;;;3.20;99.90;;;;;;5025488;28;20524;-77
2021/01/26 06:22:29;;;;;;;14.33;7.00;;;3.30;99.90;;;;;;5032147;28;20453;-77
2021/01/26 06:24:56;;;;;;;11.37;8.00;;;3.30;99.90;;;;;;5034020;28;21017;-78
2021/01/26 06:27:40;;;;;;;22.33;9.50;;;3.40;99.90;;;;;;5036813;28;20203;-80
2021/01/26 06:30:18;;;;;;;18.57;8.60;;;3.30;99.90;;;;;;5036936;28;20818;-78
2021/01/26 06:32:47;;;;;;;16.90;8.80;;;3.30;99.90;;;;;;5018694;28;20458;-79
2021/01/26 06:35:40;;;;;;;17.00;9.20;;;3.40;99.90;;;;;;5029007;28;20422;-79
2021/01/26 06:38:09;;;;;;;15.20;8.20;;;3.40;99.90;;;;;;5036725;28;20788;-78
2021/01/26 06:40:41;;;;;;;13.83;8.40;;;3.30;99.90;;;;;;5035399;28;20449;-79
2021/01/26 06:43:09;;;;;;;14.77;8.40;;;3.40;99.90;;;;;;5036101;28;20409;-77
2021/01/26 06:46:00;;;;;;;15.17;8.53;;;3.30;99.90;;;;;;5033403;28;20465;-78
2021/01/26 06:48:46;;;;;;;14.40;8.10;;;3.20;99.90;;;;;;5034155;28;20782;-78
2021/01/26 06:51:30;;;;;;;16.33;8.33;;;3.30;99.90;;;;;;5032801;28;20474;-77
2021/01/26 06:54:03;;;;;;;14.80;8.10;;;3.30;99.90;;;;;;5032106;28;20790;-77
2021/01/26 06:56:43;;;;;;;10.93;7.87;;;3.30;99.90;;;;;;5034070;28;21053;-77
2021/01/26 06:59:39;;;;;;;18.33;10.60;;;3.30;99.90;;;;;;5033647;28;20426;-77
2021/01/26 07:02:23;;;;;;;20.13;9.23;;;3.30;99.90;;;;;;5033182;28;20461;-76
2021/01/26 07:05:26;;;;;;;20.13;10.03;;;3.20;99.90;;;;;;5033300;28;20438;-78
2021/01/26 07:08:18;;;;;;;18.13;8.40;;;3.20;99.90;;;;;;5033260;28;20500;-77
2021/01/26 07:11:04;;;;;;;12.90;8.00;;;3.20;99.90;;;;;;5032914;28;20430;-77
2021/01/26 07:14:07;;;;;;;22.33;10.60;;;3.10;99.90;;;;;;5033820;28;20405;-77
2021/01/26 07:16:53;;;;;;;13.10;8.30;;;3.00;99.90;;;;;;5033674;28;20437;-77
2021/01/26 07:19:24;;;;;;;18.13;9.20;;;3.00;99.90;;;;;;5028940;28;20441;-78
2021/01/26 07:22:18;;;;;;;14.00;9.00;;;3.00;99.90;;;;;;5033642;28;20525;-79
2021/01/26 07:25:08;;;;;;;23.43;9.90;;;3.00;99.90;;;;;;5035380;28;20410;-77
2021/01/26 07:27:33;;;;;;;17.10;9.17;;;2.90;99.90;;;;;;5017380;28;20466;-77
2021/01/26 07:30:08;;;;;;;20.27;9.93;;;3.00;99.90;;;;;;5024574;28;20473;-77
2021/01/26 07:32:48;;;;;;;18.97;9.33;;;3.00;99.90;;;;;;5030931;28;20556;-77
2021/01/26 07:35:28;;;;;;;11.23;9.57;;;3.00;99.90;;;;;;5032314;28;20465;-77
2021/01/26 07:38:12;;;;;;;20.60;10.23;;;3.10;99.90;;;;;;5031334;28;20808;-78
2021/01/26 07:40:44;;;;;;;19.53;10.70;;;3.10;99.90;;;;;;5032000;28;20976;-78
2021/01/26 07:43:58;;;;;;;11.67;8.30;;;3.20;99.90;;;;;;5033182;28;20391;-77
2021/01/26 07:46:26;;;;;;;22.50;9.27;;;3.20;99.90;;;;;;5010840;28;20463;-76
2021/01/26 07:48:51;;;;;;;15.53;9.50;;;3.20;99.90;;;;;;5030483;28;20555;-77
2021/01/26 07:51:22;;;;;;;20.27;10.87;;;3.20;99.90;;;;;;5030321;28;20893;-76
2021/01/26 07:53:53;;;;;;;15.67;8.00;;;3.20;99.90;;;;;;5033404;28;20226;-78
2021/01/26 07:56:31;;;;;;;16.20;10.23;;;3.20;99.90;;;;;;5032415;28;20430;-74
2021/01/26 07:58:59;;;;;;;17.70;10.00;;;3.20;99.90;;;;;;5032021;28;20434;-72
2021/01/26 08:01:28;;;;;;;13.57;8.10;;;3.30;99.90;;;;;;5030265;28;20471;-72
2021/01/26 08:04:00;;;;;;;13.30;7.17;;;3.20;99.90;;;;;;5029336;28;20433;-75
2021/01/26 08:06:40;;;;;;;14.30;9.18;;;3.20;99.90;;;;;;5030593;28;20465;-76
2021/01/26 08:09:13;;;;;;;13.33;7.73;;;3.30;99.90;;;;;;5033118;28;20179;-81
2021/01/26 08:12:02;;;;;;;12.77;8.07;;;3.40;99.90;;;;;;5016295;28;20431;-78
2021/01/26 08:14:53;;;;;;;9.83;6.80;;;3.40;99.90;;;;;;5023498;28;20422;-78
2021/01/26 08:17:34;;;;;;;17.80;7.57;;;3.30;99.90;;;;;;5031935;28;21065;-81
2021/01/26 08:20:28;;;;;;;13.80;6.70;;;3.30;99.90;;;;;;5030953;28;20430;-78
2021/01/26 08:23:09;;;;;;;11.63;8.53;;;3.30;99.90;;;;;;5035650;28;20922;-80
2021/01/26 08:25:38;;;;;;;11.30;7.13;;;3.40;99.90;;;;;;5035039;28;20756;-80
2021/01/26 08:28:09;;;;;;;13.77;7.20;;;3.30;99.90;;;;;;5028149;28;20458;-77
2021/01/26 08:30:49;;;;;;;16.93;7.87;;;3.30;99.90;;;;;;5018546;28;20444;-79
2021/01/26 08:33:21;;;;;;;14.00;7.67;;;3.30;99.90;;;;;;5032485;28;20426;-80
2021/01/26 08:36:20;;;;;;;13.40;8.87;;;3.40;99.90;;;;;;5030838;28;20723;-79
2021/01/26 08:38:56;;;;;;;11.23;7.00;;;3.50;99.90;;;;;;5033341;28;20440;-79
2021/01/26 08:41:38;;;;;;;21.80;8.93;;;3.70;99.90;;;;;;5035141;28;20421;-79
2021/01/26 08:44:27;;;;;;;17.63;7.77;;;3.90;99.90;;;;;;5031999;28;20433;-77
2021/01/26 08:46:54;;;;;;;14.43;7.70;;;3.90;99.90;;;;;;5010844;28;20465;-78
2021/01/26 08:49:30;;;;;;;8.23;7.03;;;3.90;99.90;;;;;;5030752;28;20438;-77
2021/01/26 08:52:21;;;;;;;17.10;8.77;;;3.90;99.90;;;;;;5032086;28;20495;-78
2021/01/26 08:54:49;;;;;;;15.70;7.20;;;3.70;99.90;;;;;;5013643;28;20419;-78
2021/01/26 08:57:27;;;;;;;17.43;8.10;;;3.80;99.90;;;;;;5012472;28;20632;-77
2021/01/26 08:59:58;;;;;;;16.53;7.50;;;3.70;99.90;;;;;;5018968;28;20441;-79
2021/01/26 09:02:50;;;;;;;12.70;7.40;;;3.60;99.90;;;;;;5035658;28;20439;-79
2021/01/26 09:05:34;;;;;;;16.40;7.80;;;3.50;99.90;;;;;;5034311;28;20430;-79
2021/01/26 09:08:05;;;;;;;9.27;8.30;;;3.60;99.90;;;;;;5013277;28;20466;-78
2021/01/26 09:10:52;;;;;;;22.07;8.97;;;3.50;99.90;;;;;;5011784;28;20480;-78
2021/01/26 09:13:31;;;;;;;10.17;8.07;;;3.50;99.90;;;;;;5020218;28;20429;-78
2021/01/26 09:16:04;;;;;;;12.03;7.17;;;3.50;99.90;;;;;;5030281;28;20569;-78
2021/01/26 09:18:30;;;;;;;13.70;8.30;;;3.50;99.90;;;;;;5025831;28;20449;-78
2021/01/26 09:21:03;;;;;;;15.07;8.00;;;3.70;99.90;;;;;;5031291;28;20434;-78
2021/01/26 09:23:30;;;;;;;13.70;6.70;;;3.60;99.90;;;;;;5030843;28;20423;-78
2021/01/26 09:25:56;;;;;;;12.50;7.07;;;3.70;99.90;;;;;;5031849;28;20468;-78
2021/01/26 09:28:23;;;;;;;13.60;7.77;;;3.70;99.90;;;;;;5033913;28;20454;-80
2021/01/26 09:31:00;;;;;;;13.80;7.30;;;3.70;99.90;;;;;;5034751;28;20270;-79
2021/01/26 09:33:29;;;;;;;11.90;6.70;;;3.80;99.90;;;;;;5033373;28;20772;-79
2021/01/26 09:36:08;;;;;;;11.70;8.17;;;3.80;99.90;;;;;;5034712;28;20399;-79
2021/01/26 09:38:35;;;;;;;14.30;7.27;;;3.80;99.90;;;;;;5031117;28;20940;-78
2021/01/26 09:41:05;;;;;;;19.17;6.80;;;3.80;99.90;;;;;;5030995;28;21007;-77
2021/01/26 09:43:33;;;;;;;8.23;6.90;;;3.90;99.90;;;;;;5031759;28;20442;-79
2021/01/26 09:46:04;;;;;;;11.80;7.33;;;4.00;99.90;;;;;;5034291;28;20521;-79
2021/01/26 09:48:42;;;;;;;10.20;7.33;;;4.30;99.90;;;;;;5035787;28;20426;-78
2021/01/26 09:51:25;;;;;;;11.27;6.90;;;4.50;99.90;;;;;;5034464;28;20500;-78
2021/01/26 09:54:02;;;;;;;12.90;6.07;;;4.90;99.90;;;;;;5034830;28;20413;-79
2021/01/26 09:56:30;;;;;;;7.00;5.53;;;5.20;99.90;;;;;;5038355;28;20769;-78
2021/01/26 09:58:57;;;;;;;8.90;6.50;;;5.50;99.90;;;;;;5036756;28;20410;-80
2021/01/26 10:01:24;;;;;;;8.90;6.30;;;5.60;99.90;;;;;;5037695;28;20434;-79
2021/01/26 10:03:57;;;;;;;16.40;6.53;;;5.90;99.90;;;;;;5038355;28;20410;-79
2021/01/26 10:06:23;;;;;;;8.63;6.33;;;6.30;99.90;;;;;;5038373;28;20445;-79
2021/01/26 10:08:49;;;;;;;7.97;5.30;;;6.60;99.90;;;;;;5036597;28;20460;-78
2021/01/26 10:11:28;;;;;;;11.33;4.93;;;6.70;99.90;;;;;;5034933;28;20805;-78
2021/01/26 10:14:15;;;;;;;10.73;5.50;;;6.80;99.90;;;;;;5033948;28;20202;-78
2021/01/26 10:16:46;;;;;;;10.97;4.97;;;6.90;99.90;;;;;;5035026;28;20414;-78
2021/01/26 10:19:28;;;;;;;5.97;5.30;;;6.90;99.90;;;;;;5033436;28;20425;-77
2021/01/26 10:22:03;;;;;;;8.40;6.27;;;7.20;99.90;;;;;;5034754;28;20972;-77
2021/01/26 10:24:33;;;;;;;8.17;5.50;;;7.30;99.90;;;;;;5035090;28;20416;-77
2021/01/26 10:27:09;;;;;;;12.63;4.97;;;7.30;99.90;;;;;;5033374;28;20458;-78
2021/01/26 10:29:39;;;;;;;9.13;5.07;;;7.00;99.90;;;;;;5032952;28;20410;-77
2021/01/26 10:32:06;;;;;;;5.30;4.80;;;6.70;99.90;;;;;;5033114;28;20670;-77
2021/01/26 10:34:33;;;;;;;11.77;5.60;;;6.80;99.90;;;;;;5034577;28;20409;-78
2021/01/26 10:37:14;;;;;;;16.90;5.80;;;6.90;99.90;;;;;;5033307;28;20773;-77
2021/01/26 10:39:42;;;;;;;9.90;4.33;;;7.00;99.90;;;;;;5035465;28;20413;-77
2021/01/26 10:42:22;;;;;;;9.33;5.40;;;7.00;99.90;;;;;;5033364;28;20466;-77
2021/01/26 10:44:54;;;;;;;10.40;4.87;;;7.10;99.90;;;;;;5035162;28;20944;-78
2021/01/26 10:47:36;;;;;;;7.60;4.17;;;6.80;99.90;;;;;;5036004;28;21000;-78
2021/01/26 10:50:07;;;;;;;5.63;5.03;;;6.80;99.90;;;;;;5034647;28;20443;-78
2021/01/26 10:52:53;;;;;;;7.97;4.40;;;6.90;99.90;;;;;;5034189;28;20436;-79
2021/01/26 10:55:23;;;;;;;7.87;4.57;;;7.40;99.90;;;;;;5037269;28;20476;-81
2021/01/26 10:57:50;;;;;;;8.00;5.27;;;7.70;99.90;;;;;;5038532;28;20910;-80
2021/01/26 11:00:22;;;;;;;8.77;4.37;;;7.70;99.90;;;;;;5038258;28;20446;-80
2021/01/26 11:02:49;;;;;;;6.03;3.70;;;8.10;99.90;;;;;;5037336;28;20464;-80
2021/01/26 11:05:15;;;;;;;20.00;5.10;;;8.00;99.90;;;;;;5035455;28;20418;-78
2021/01/26 11:07:41;;;;;;;14.87;5.00;;;7.70;99.90;;;;;;5032733;28;20462;-78
2021/01/26 11:10:07;;;;;;;7.40;5.03;;;7.30;99.90;;;;;;5032383;28;20489;-78
2021/01/26 11:12:40;;;;;;;8.83;5.07;;;7.10;99.90;;;;;;5033509;28;20725;-77
2021/01/26 11:15:18;;;;;;;9.23;5.13;;;6.70;99.90;;;;;;5034727;28;20399;-78
2021/01/26 11:17:43;;;;;;;9.87;4.50;;;6.50;99.90;;;;;;5033743;28;20410;-78
2021/01/26 11:20:12;;;;;;;12.43;5.23;;;6.10;99.90;;;;;;5033507;28;20459;-78
2021/01/26 11:22:38;;;;;;;9.23;4.60;;;5.90;99.90;;;;;;5033994;28;20191;-78
2021/01/26 11:25:08;;;;;;;13.03;6.00;;;6.10;99.90;;;;;;5034114;28;20497;-78
2021/01/26 11:27:34;;;;;;;8.27;6.47;;;6.00;99.90;;;;;;5036774;28;20527;-79
2021/01/26 11:30:00;;;;;;;11.63;6.30;;;6.00;99.90;;;;;;5036816;28;20421;-80
2021/01/26 11:32:26;;;;;;;10.73;5.37;;;6.00;99.90;;;;;;5036236;28;20418;-80
2021/01/26 11:34:51;;;;;;;9.00;6.63;;;5.90;99.90;;;;;;5034409;28;20176;-80
2021/01/26 11:37:17;;;;;;;14.00;5.50;;;6.00;99.90;;;;;;5034548;28;20847;-80
2021/01/26 11:39:42;;;;;;;10.83;5.37;;;5.80;99.90;;;;;;5034088;28;20259;-79
2021/01/26 11:42:08;;;;;;;7.23;4.50;;;5.80;99.90;;;;;;5035810;28;20206;-80
2021/01/26 11:44:35;;;;;;;9.80;5.17;;;5.70;99.90;;;;;;5035616;28;20355;-79
2021/01/26 11:47:01;;;;;;;8.50;5.70;;;5.50;99.90;;;;;;5033523;28;20873;-77
2021/01/26 11:49:26;;;;;;;12.57;5.37;;;5.50;99.90;;;;;;5032867;28;20474;-80
2021/01/26 11:51:52;;;;;;;13.60;6.00;;;5.50;99.90;;;;;;5035582;28;20433;-80
2021/01/26 11:54:18;;;;;;;7.73;5.47;;;5.50;99.90;;;;;;5036123;28;20195;-79
2021/01/26 11:56:43;;;;;;;8.30;4.60;;;5.30;99.90;;;;;;5033482;28;20178;-78
2021/01/26 11:59:09;;;;;;;11.97;5.80;;;5.30;99.90;;;;;;5034117;28;20274;-78
2021/01/26 12:01:35;;;;;;;10.10;6.37;;;5.20;99.90;;;;;;5033102;28;20445;-79
2021/01/26 12:04:01;;;;;;;14.07;5.90;;;5.20;99.90;;;;;;5033428;28;20414;-79
2021/01/26 12:06:26;;;;;;;13.43;5.67;;;5.30;99.90;;;;;;5033346;28;20199;-80
2021/01/26 12:08:52;;;;;;;26.13;6.00;;;5.20;99.90;;;;;;5036488;28;20188;-81
2021/01/26 12:11:17;;;;;;;11.77;5.67;;;5.20;99.90;;;;;;5035511;28;20218;-79
2021/01/26 12:13:43;;;;;;;10.30;5.60;;;5.20;99.90;;;;;;5034000;28;20171;-79
2021/01/26 12:16:10;;;;;;;12.00;6.30;;;5.00;99.90;;;;;;5034225;28;20564;-79
2021/01/26 12:18:36;;;;;;;13.37;6.20;;;5.10;99.90;;;;;;5036359;28;20411;-79
2021/01/26 12:21:02;;;;;;;9.77;5.53;;;5.20;99.90;;;;;;5035457;28;20437;-79
2021/01/26 12:23:27;;;;;;;12.57;6.73;;;5.10;99.90;;;;;;5034890;28;20793;-78
2021/01/26 12:25:57;;;;;;;8.50;5.80;;;5.20;99.90;;;;;;5034585;28;20413;-79
2021/01/26 12:28:23;;;;;;;6.57;4.77;;;5.30;99.90;;;;;;5035071;28;20203;-80
2021/01/26 12:30:49;;;;;;;9.13;5.20;;;5.40;99.90;;;;;;5026998;28;20525;-80
2021/01/26 12:33:15;;;;;;;8.77;7.10;;;5.40;99.90;;;;;;5016171;28;20429;-80
2021/01/26 12:35:41;;;;;;;5.13;4.63;;;5.90;99.90;;;;;;5014684;28;20506;-79
2021/01/26 12:38:08;;;;;;;8.70;4.40;;;6.30;99.90;;;;;;5015152;28;20186;-80
2021/01/26 12:40:34;;;;;;;22.33;4.50;;;6.70;99.90;;;;;;5028281;28;20183;-79
2021/01/26 12:43:00;;;;;;;12.47;4.40;;;6.80;99.90;;;;;;5035495;28;20422;-79
2021/01/26 12:45:28;;;;;;;4.50;3.90;;;7.00;99.90;;;;;;5034650;28;20434;-80
2021/01/26 12:47:55;;;;;;;8.57;4.53;;;7.30;99.90;;;;;;5033479;28;20506;-79
2021/01/26 12:50:26;;;;;;;12.87;5.50;;;7.50;99.90;;;;;;5014470;28;20438;-79
2021/01/26 12:52:52;;;;;;;6.10;4.30;;;7.50;99.90;;;;;;5029129;28;20434;-80
2021/01/26 12:55:18;;;;;;;7.83;4.97;;;7.50;99.90;;;;;;5034078;28;20407;-80
2021/01/26 12:57:44;;;;;;;8.40;3.60;;;7.60;99.90;;;;;;5067369;28;20517;-79
2021/01/26 13:00:14;;;;;;;6.67;3.50;;;7.60;99.90;;;;;;5033701;28;20949;-80
2021/01/26 13:02:40;;;;;;;6.53;4.37;;;8.00;99.90;;;;;;5035792;28;20199;-80
2021/01/26 13:05:07;;;;;;;9.10;4.47;;;8.30;99.90;;;;;;5035389;28;20402;-80
2021/01/26 13:07:32;;;;;;;8.07;4.90;;;7.80;99.90;;;;;;5034902;28;20449;-80
2021/01/26 13:09:58;;;;;;;7.90;4.10;;;7.80;99.90;;;;;;5034707;28;20619;-80
2021/01/26 13:12:24;;;;;;;6.83;4.40;;;7.70;99.90;;;;;;5035623;28;20429;-79
2021/01/26 13:14:49;;;;;;;9.90;5.00;;;7.60;99.90;;;;;;5033590;28;20645;-80
2021/01/26 13:17:15;;;;;;;5.00;3.90;;;7.50;99.90;;;;;;5035254;28;20195;-80
2021/01/26 13:19:41;;;;;;;10.40;4.80;;;7.40;99.90;;;;;;5034748;28;20642;-79